createdAt,value
2022-09-07T00:00:45.456Z,99682.31
2022-09-07T00:03:14.580Z,99676.13
2022-09-07T00:05:43.158Z,99685.56
2022-09-07T00:08:11.180Z,99686.34
2022-09-07T00:10:39.263Z,99677.63
2022-09-07T00:13:07.964Z,99670.56
2022-09-07T00:15:40.228Z,99663.56
2022-09-07T00:18:08.075Z,99664.41
2022-09-07T00:20:37.535Z,99658.31
2022-09-07T00:23:05.304Z,99661.84
2022-09-07T00:25:33.378Z,99661.75
2022-09-07T00:28:01.061Z,99654.81
2022-09-07T00:30:28.793Z,99658.28
2022-09-07T00:32:56.444Z,99663.50
2022-09-07T00:35:24.132Z,99649.72
2022-09-07T00:37:53.204Z,99639.31
2022-09-07T00:40:20.856Z,99642.91
2022-09-07T00:42:48.591Z,99632.50
2022-09-07T00:45:18.379Z,99626.50
2022-09-07T00:47:53.377Z,99624.78
2022-09-07T00:50:26.844Z,99630.00
2022-09-07T00:52:59.020Z,99621.34
2022-09-07T00:55:27.546Z,99617.84
2022-09-07T00:57:57.382Z,99622.16
2022-09-07T01:00:25.709Z,99615.16
2022-09-07T01:02:56.496Z,99616.88
2022-09-07T01:05:28.841Z,99628.22
2022-09-07T01:07:58.579Z,99636.97
2022-09-07T01:10:30.563Z,99646.69
2022-09-07T01:12:58.553Z,99647.81
2022-09-07T01:15:33.551Z,99657.47
2022-09-07T01:18:08.766Z,99676.63
2022-09-07T01:20:51.246Z,99678.31
2022-09-07T01:23:48.337Z,99683.50
2022-09-07T01:27:02.754Z,99682.53
2022-09-07T01:29:36.722Z,99683.31
2022-09-07T01:32:13.322Z,99679.84
2022-09-07T01:34:44.507Z,99684.22
2022-09-07T01:37:23.728Z,99689.41
2022-09-07T01:39:56.937Z,99713.88
2022-09-07T01:42:31.459Z,99735.31
2022-09-07T01:45:03.263Z,99736.06
2022-09-07T01:47:34.930Z,99740.25
2022-09-07T01:50:09.343Z,99737.63
2022-09-07T01:52:43.006Z,99746.31
2022-09-07T01:55:16.547Z,99760.19
2022-09-07T01:57:48.682Z,99767.13
2022-09-07T02:00:20.073Z,99749.66
2022-09-07T02:02:53.068Z,99746.97
2022-09-07T02:05:24.321Z,99745.22
2022-09-07T02:07:57.188Z,99729.53
2022-09-07T02:10:29.448Z,99733.00
2022-09-07T02:13:02.877Z,99727.75
2022-09-07T02:15:33.744Z,99726.03
2022-09-07T02:18:05.721Z,99728.50
2022-09-07T02:20:38.913Z,99724.88
2022-09-07T02:23:09.971Z,99731.84
2022-09-07T02:25:41.360Z,99730.94
2022-09-07T02:28:13.124Z,99740.53
2022-09-07T02:30:42.434Z,99733.66
2022-09-07T02:33:11.155Z,99733.56
2022-09-07T02:35:38.964Z,99743.16
2022-09-07T02:38:08.251Z,99740.75
2022-09-07T02:40:36.235Z,99746.13
2022-09-07T02:43:07.060Z,99739.88
2022-09-07T02:45:47.579Z,99738.03
2022-09-07T02:48:23.991Z,99722.31
2022-09-07T02:51:02.350Z,99736.31
2022-09-07T02:53:52.153Z,99720.78
2022-09-07T02:56:33.909Z,99727.69
2022-09-07T02:59:08.956Z,99727.63
2022-09-07T03:01:47.912Z,99733.75
2022-09-07T03:04:24.844Z,99728.50
2022-09-07T03:06:56.228Z,99731.97
2022-09-07T03:09:27.939Z,99748.56
2022-09-07T03:11:55.812Z,99742.56
2022-09-07T03:14:25.966Z,99746.13
2022-09-07T03:16:56.870Z,99739.22
2022-09-07T03:19:25.875Z,99728.81
2022-09-07T03:21:54.169Z,99730.66
2022-09-07T03:24:21.853Z,99727.19
2022-09-07T03:26:50.435Z,99735.94
2022-09-07T03:29:18.560Z,99730.84
2022-09-07T03:31:46.677Z,99729.06
2022-09-07T03:34:14.507Z,99712.59
2022-09-07T03:36:43.590Z,99708.25
2022-09-07T03:39:13.114Z,99709.22
2022-09-07T03:41:40.876Z,99711.75
2022-09-07T03:44:09.037Z,99719.50
2022-09-07T03:46:36.713Z,99713.31
2022-09-07T03:49:04.515Z,99721.16
2022-09-07T03:51:32.236Z,99716.91
2022-09-07T03:54:01.297Z,99712.63
2022-09-07T03:56:28.977Z,99716.19
2022-09-07T03:58:56.796Z,99710.09
2022-09-07T04:01:26.973Z,99710.16
2022-09-07T04:04:02.110Z,99715.44
2022-09-07T04:06:30.754Z,99717.25
2022-09-07T04:08:58.671Z,99714.72
2022-09-07T04:11:27.792Z,99711.25
2022-09-07T04:13:55.501Z,99710.47
2022-09-07T04:16:25.755Z,99708.78
2022-09-07T04:18:54.664Z,99716.63
2022-09-07T04:21:23.779Z,99717.44
2022-09-07T04:23:51.920Z,99720.94
2022-09-07T04:26:21.900Z,99733.22
2022-09-07T04:28:51.509Z,99732.47
2022-09-07T04:31:20.509Z,99733.31
2022-09-07T04:33:50.092Z,99735.97
2022-09-07T04:36:18.916Z,99731.59
2022-09-07T04:38:47.189Z,99744.69
2022-09-07T04:41:17.158Z,99744.69
2022-09-07T04:43:45.713Z,99742.03
2022-09-07T04:46:20.417Z,99742.03
2022-09-07T04:48:49.328Z,99746.44
2022-09-07T04:51:20.708Z,99745.53
2022-09-07T04:53:49.806Z,99742.13
2022-09-07T04:56:18.391Z,99736.94
2022-09-07T04:58:47.584Z,99743.94
2022-09-07T05:01:18.639Z,99748.25
2022-09-07T05:03:47.246Z,99743.09
2022-09-07T05:06:16.479Z,99750.94
2022-09-07T05:08:46.196Z,99745.69
2022-09-07T05:11:15.175Z,99738.72
2022-09-07T05:13:43.379Z,99738.75
2022-09-07T05:16:12.641Z,99739.63
2022-09-07T05:18:41.963Z,99744.00
2022-09-07T05:21:12.000Z,99749.22
2022-09-07T05:23:40.397Z,99747.44
2022-09-07T05:26:08.824Z,99746.63
2022-09-07T05:28:36.989Z,99748.34
2022-09-07T05:36:37.250Z,99762.22
2022-09-07T05:39:06.450Z,99766.53
2022-09-07T05:41:34.137Z,99776.06
2022-09-07T05:46:49.838Z,99773.41
2022-09-07T05:49:18.880Z,99772.50
2022-09-07T05:51:46.902Z,99771.63
2022-09-07T05:54:14.683Z,99771.59
2022-09-07T05:56:42.351Z,99775.91
2022-09-07T05:59:10.114Z,99769.78
2022-09-07T06:01:37.875Z,99771.50
2022-09-07T06:04:05.660Z,99788.81
2022-09-07T06:06:38.867Z,99785.19
2022-09-07T06:09:07.706Z,99781.63
2022-09-07T06:11:35.475Z,99788.47
2022-09-07T06:14:03.180Z,99791.81
2022-09-07T06:16:34.555Z,99795.19
2022-09-07T06:19:08.315Z,99795.03
2022-09-07T06:21:39.668Z,99791.44
2022-09-07T06:24:07.949Z,99792.22
2022-09-07T06:26:35.647Z,99782.44
2022-09-07T06:29:03.693Z,99788.31
2022-09-07T06:31:31.911Z,99789.03
2022-09-07T06:33:59.701Z,99780.13
2022-09-07T06:36:28.462Z,99794.84
2022-09-07T06:39:01.374Z,99794.69
2022-09-07T06:44:21.427Z,99791.88
2022-09-07T06:47:04.831Z,99790.84
2022-09-07T06:49:32.677Z,99790.72
2022-09-07T06:52:00.417Z,99795.88
2022-09-07T06:57:17.137Z,99788.63
2022-09-07T06:59:44.870Z,99794.59
2022-09-07T07:02:14.826Z,99800.47
2022-09-07T07:04:42.533Z,99798.63
2022-09-07T07:07:14.137Z,99801.06
2022-09-07T07:09:43.307Z,99804.59
2022-09-07T07:12:12.003Z,99809.69
2022-09-07T07:14:44.712Z,99797.31
2022-09-07T07:17:12.985Z,99799.03
2022-09-07T07:19:40.729Z,99801.09
2022-09-07T07:22:24.008Z,99803.53
2022-09-07T07:24:57.560Z,99820.25
2022-09-07T07:27:25.325Z,99819.97
2022-09-07T07:29:53.835Z,99813.53
2022-09-07T07:32:22.595Z,99819.47
2022-09-07T07:34:50.255Z,99820.97
2022-09-07T07:37:18.001Z,99820.88
2022-09-07T07:42:35.539Z,99827.59
2022-09-07T07:47:51.936Z,99833.50
2022-09-07T07:50:35.089Z,99839.50
2022-09-07T07:55:50.730Z,99833.16
2022-09-07T07:58:20.116Z,99835.56
2022-09-07T08:00:56.180Z,99831.75
2022-09-07T08:03:25.788Z,99831.00
2022-09-07T08:05:53.726Z,99835.22
2022-09-07T08:08:21.968Z,99834.13
2022-09-07T08:10:49.637Z,99841.63
2022-09-07T08:13:19.033Z,99832.31
2022-09-07T08:15:47.116Z,99831.19
2022-09-07T08:18:16.365Z,99832.16
2022-09-07T08:20:44.312Z,99844.38
2022-09-07T08:23:12.114Z,99841.69
2022-09-07T08:25:40.143Z,99847.59
2022-09-07T08:28:08.261Z,99844.81
2022-09-07T08:30:39.987Z,99849.88
2022-09-07T08:33:07.484Z,99844.44
2022-09-07T08:35:35.137Z,99842.16
2022-09-07T08:38:02.749Z,99849.16
2022-09-07T08:40:32.101Z,99853.34
2022-09-07T08:43:09.210Z,99852.41
2022-09-07T08:45:44.700Z,99845.19
2022-09-07T08:48:18.408Z,99857.41
2022-09-07T08:50:54.200Z,99844.47
2022-09-07T08:53:24.966Z,99845.91
2022-09-07T08:55:56.970Z,99849.19
2022-09-07T08:58:48.345Z,99842.88
2022-09-07T09:01:35.504Z,99840.88
2022-09-07T09:04:21.064Z,99844.09
2022-09-07T09:07:02.611Z,99844.00
2022-09-07T09:09:45.393Z,99845.63
2022-09-07T09:12:22.882Z,99855.25
2022-09-07T09:15:04.174Z,99849.84
2022-09-07T09:17:37.223Z,99849.69
2022-09-07T09:20:18.377Z,99835.31
2022-09-07T09:22:46.369Z,99832.88
2022-09-07T09:25:20.034Z,99833.69
2022-09-07T09:27:48.027Z,99835.09
2022-09-07T09:30:18.303Z,99832.94
2022-09-07T09:32:49.518Z,99825.97
2022-09-07T09:35:24.449Z,99827.13
2022-09-07T09:37:52.108Z,99824.94
2022-09-07T09:40:23.116Z,99825.16
2022-09-07T09:43:01.724Z,99825.78
2022-09-07T09:46:12.105Z,99829.44
2022-09-07T09:48:28.363Z,99832.53
2022-09-07T09:53:58.959Z,99819.31
2022-09-07T09:56:40.726Z,99819.69
2022-09-07T10:05:28.323Z,99809.22
2022-09-07T10:07:56.461Z,99808.91
2022-09-07T10:10:24.798Z,99796.59
2022-09-07T10:12:55.068Z,99796.13
2022-09-07T10:15:30.149Z,99802.06
2022-09-07T10:17:59.989Z,99801.75
2022-09-07T10:20:35.752Z,99799.84
2022-09-07T10:23:05.670Z,99800.78
2022-09-07T10:25:36.330Z,99788.50
2022-09-07T10:28:15.278Z,99797.63
2022-09-07T10:30:57.006Z,99791.81
2022-09-07T10:33:35.015Z,99798.78
2022-09-07T10:36:13.356Z,99806.63
2022-09-07T10:38:46.799Z,99794.91
2022-09-07T10:41:16.624Z,99794.66
2022-09-07T10:43:46.184Z,99782.47
2022-09-07T10:49:27.448Z,99788.88
2022-09-07T10:52:05.561Z,99788.50
2022-09-07T10:54:42.636Z,99770.63
2022-09-07T10:57:29.886Z,99771.06
2022-09-07T11:00:11.283Z,99772.16
2022-09-07T11:05:56.496Z,99776.78
2022-09-07T11:09:15.733Z,99762.75
2022-09-07T11:14:20.642Z,99759.38
2022-09-07T11:16:58.602Z,99755.09
2022-09-07T11:19:38.333Z,99742.25
2022-09-07T11:22:19.997Z,99749.56
2022-09-07T11:27:45.607Z,99740.19
2022-09-07T11:30:20.396Z,99735.38
2022-09-07T11:32:54.856Z,99736.97
2022-09-07T11:35:30.975Z,99743.13
2022-09-07T11:38:05.317Z,99732.63
2022-09-07T11:40:39.388Z,99736.31
2022-09-07T11:43:17.630Z,99731.41
2022-09-07T11:45:49.737Z,99721.00
2022-09-07T11:48:22.632Z,99724.63
2022-09-07T11:50:53.973Z,99719.28
2022-09-07T11:53:24.753Z,99722.53
2022-09-07T11:55:58.383Z,99722.88
2022-09-07T11:58:47.195Z,99717.66
2022-09-07T12:01:27.809Z,99720.47
2022-09-07T12:04:15.434Z,99712.31
2022-09-07T12:06:57.729Z,99706.44
2022-09-07T12:09:41.560Z,99699.22
2022-09-07T12:12:28.553Z,99707.97
2022-09-07T12:15:10.608Z,99708.41
2022-09-07T12:17:50.839Z,99703.22
2022-09-07T12:20:20.198Z,99689.19
2022-09-07T12:23:05.361Z,99689.06
2022-09-07T12:25:34.392Z,99689.03
2022-09-07T12:28:04.033Z,99688.63
2022-09-07T12:30:59.755Z,99695.91
2022-09-07T12:33:36.549Z,99685.81
2022-09-07T12:36:49.277Z,99688.59
2022-09-07T12:39:24.962Z,99690.34
2022-09-07T12:44:43.971Z,99683.75
2022-09-07T12:47:30.727Z,99672.94
2022-09-07T12:50:23.561Z,99669.16
2022-09-07T12:53:18.036Z,99673.22
2022-09-07T12:56:16.622Z,99667.69
2022-09-07T12:58:57.174Z,99668.19
2022-09-07T13:01:49.785Z,99661.63
2022-09-07T13:04:38.475Z,99673.88
2022-09-07T13:07:38.872Z,99661.06
2022-09-07T13:10:24.264Z,99679.50
2022-09-07T13:12:53.395Z,99671.53
2022-09-07T13:15:38.810Z,99658.47
2022-09-07T13:18:12.519Z,99654.09
2022-09-07T13:20:41.634Z,99647.75
2022-09-07T13:23:30.503Z,99656.44
2022-09-07T13:26:00.406Z,99647.53
2022-09-07T13:28:41.336Z,99644.25
2022-09-07T13:31:21.887Z,99638.13
2022-09-07T13:33:51.736Z,99642.44
2022-09-07T13:36:25.412Z,99635.00
2022-09-07T13:38:54.269Z,99632.69
2022-09-07T13:41:24.311Z,99627.66
2022-09-07T13:43:58.491Z,99638.31
2022-09-07T13:46:41.868Z,99627.63
2022-09-07T13:49:22.626Z,99634.75
2022-09-07T13:51:56.462Z,99631.00
2022-09-07T13:54:29.622Z,99629.56
2022-09-07T13:57:07.508Z,99620.22
2022-09-07T13:59:36.106Z,99619.72
2022-09-07T14:02:04.209Z,99620.78
2022-09-07T14:04:38.219Z,99616.31
2022-09-07T14:07:07.601Z,99614.91
2022-09-07T14:09:35.584Z,99615.34
2022-09-07T14:12:03.553Z,99611.94
2022-09-07T14:14:33.269Z,99610.81
2022-09-07T14:17:05.381Z,99605.47
2022-09-07T14:19:40.021Z,99604.50
2022-09-07T14:22:13.362Z,99604.47
2022-09-07T14:24:43.953Z,99596.53
2022-09-07T14:27:22.427Z,99594.00
2022-09-07T14:29:50.289Z,99593.94
2022-09-07T14:32:21.511Z,99595.97
2022-09-07T14:34:52.051Z,99592.94
2022-09-07T14:37:22.634Z,99594.63
2022-09-07T14:39:52.680Z,99592.81
2022-09-07T14:42:23.647Z,99595.97
2022-09-07T14:44:54.205Z,99578.16
2022-09-07T14:47:29.161Z,99581.56
2022-09-07T14:50:05.626Z,99587.72
2022-09-07T14:52:40.690Z,99579.00
2022-09-07T14:55:28.963Z,99567.78
2022-09-07T14:58:10.493Z,99552.16
2022-09-07T15:00:38.654Z,99555.41
2022-09-07T15:03:26.651Z,99555.03
2022-09-07T15:06:00.800Z,99556.25
2022-09-07T15:08:38.870Z,99548.69
2022-09-07T15:13:58.637Z,99552.75
2022-09-07T15:16:28.319Z,99555.69
2022-09-07T15:18:57.783Z,99548.91
2022-09-07T15:21:28.950Z,99554.00
2022-09-07T15:23:58.476Z,99558.88
2022-09-07T15:29:19.335Z,99544.41
2022-09-07T15:32:01.167Z,99544.19
2022-09-07T15:34:32.084Z,99541.63
2022-09-07T15:37:01.788Z,99549.97
2022-09-07T15:39:30.574Z,99556.56
2022-09-07T15:42:00.667Z,99550.81
2022-09-07T15:44:46.369Z,99554.63
2022-09-07T15:50:01.869Z,99538.06
2022-09-07T15:52:32.228Z,99539.13
2022-09-07T15:55:00.212Z,99540.34
2022-09-07T16:00:16.530Z,99544.63
2022-09-07T16:05:31.884Z,99558.03
2022-09-07T16:11:04.701Z,99582.84
2022-09-07T16:13:32.884Z,99572.63
2022-09-07T16:16:01.887Z,99567.91
2022-09-07T16:18:33.058Z,99577.88
2022-09-07T16:21:05.673Z,99582.31
2022-09-07T16:23:34.862Z,99573.91
2022-09-07T16:26:04.340Z,99580.13
2022-09-07T16:28:32.676Z,99579.81
2022-09-07T16:31:00.376Z,99565.50
2022-09-07T16:33:35.959Z,99562.03
2022-09-07T16:36:06.480Z,99538.34
2022-09-07T16:38:51.388Z,99539.56
2022-09-07T16:41:22.592Z,99545.31
2022-09-07T16:43:50.433Z,99555.88
2022-09-07T16:46:20.587Z,99557.28
2022-09-07T16:48:48.478Z,99553.22
2022-09-07T16:51:19.576Z,99550.91
2022-09-07T16:53:49.795Z,99558.28
2022-09-07T16:56:19.868Z,99545.53
2022-09-07T16:58:49.886Z,99535.38
2022-09-07T17:01:19.411Z,99536.50
2022-09-07T17:03:49.215Z,99540.66
2022-09-07T17:06:18.135Z,99542.25
2022-09-07T17:08:46.996Z,99548.78
2022-09-07T17:11:17.996Z,99543.63
2022-09-07T17:13:46.376Z,99543.47
2022-09-07T17:16:16.683Z,99545.63
2022-09-07T17:21:34.400Z,99554.97
2022-09-07T17:24:04.303Z,99553.78
2022-09-07T17:26:33.926Z,99545.34
2022-09-07T17:29:01.744Z,99553.59
2022-09-07T17:34:19.535Z,99555.28
2022-09-07T17:36:47.182Z,99553.22
2022-09-07T17:39:17.233Z,99560.00
2022-09-07T17:41:47.977Z,99556.84
2022-09-07T17:44:15.973Z,99563.28
2022-09-07T17:46:43.820Z,99566.72
2022-09-07T17:49:12.304Z,99560.88
2022-09-07T17:51:40.500Z,99563.59
2022-09-07T17:54:10.944Z,99573.25
2022-09-07T17:56:40.243Z,99579.97
2022-09-07T18:01:58.185Z,99599.25
2022-09-07T18:04:26.036Z,99609.13
2022-09-07T18:06:54.471Z,99611.91
2022-09-07T18:09:22.210Z,99610.53
2022-09-07T18:11:50.702Z,99612.97
2022-09-07T18:14:20.119Z,99614.44
2022-09-07T18:16:50.153Z,99607.41
2022-09-07T18:19:29.020Z,99603.00
2022-09-07T18:21:57.185Z,99592.50
2022-09-07T18:24:25.393Z,99583.13
2022-09-07T18:26:54.096Z,99589.50
2022-09-07T18:29:30.205Z,99595.91
2022-09-07T18:32:02.284Z,99582.31
2022-09-07T18:34:30.653Z,99579.78
2022-09-07T18:36:59.114Z,99574.88
2022-09-07T18:39:26.961Z,99586.78
2022-09-07T18:41:55.477Z,99583.66
2022-09-07T18:47:21.189Z,99597.94
2022-09-07T18:49:50.897Z,99595.75
2022-09-07T18:55:07.155Z,99574.13
2022-09-07T18:57:36.178Z,99577.53
2022-09-07T19:00:06.733Z,99573.34
2022-09-07T19:02:35.058Z,99566.38
2022-09-07T19:07:50.296Z,99565.16
2022-09-07T19:10:18.260Z,99566.28
2022-09-07T19:12:46.498Z,99570.88
2022-09-07T19:15:15.916Z,99567.38
2022-09-07T19:17:48.546Z,99570.97
2022-09-07T19:20:16.180Z,99573.94
2022-09-07T19:22:43.782Z,99583.56
2022-09-07T19:25:11.370Z,99584.59
2022-09-07T19:27:38.897Z,99577.59
2022-09-07T19:30:07.244Z,99580.34
2022-09-07T19:32:36.341Z,99570.84
2022-09-07T19:35:04.253Z,99555.38
2022-09-07T19:37:32.717Z,99560.06
2022-09-07T19:40:01.732Z,99552.28
2022-09-07T19:42:55.145Z,99546.44
2022-09-07T19:45:22.709Z,99543.25
2022-09-07T19:47:51.669Z,99525.38
2022-09-07T19:50:21.982Z,99511.63
2022-09-07T19:52:49.629Z,99498.03
2022-09-07T19:55:17.496Z,99493.03
2022-09-07T19:57:46.584Z,99492.88
2022-09-07T20:00:15.211Z,99478.16
2022-09-07T20:02:42.926Z,99468.50
2022-09-07T20:05:13.400Z,99458.66
2022-09-07T20:07:41.021Z,99454.84
2022-09-07T20:10:09.248Z,99445.81
2022-09-07T20:12:36.782Z,99462.41
2022-09-07T20:15:04.765Z,99464.00
2022-09-07T20:17:35.304Z,99480.63
2022-09-07T20:20:03.617Z,99471.00
2022-09-07T20:22:32.612Z,99465.66
2022-09-07T20:25:00.168Z,99471.75
2022-09-07T20:27:27.783Z,99470.22
2022-09-07T20:29:55.283Z,99462.72
2022-09-07T20:32:22.834Z,99448.66
2022-09-07T20:34:50.456Z,99456.72
2022-09-07T20:37:17.957Z,99450.84
2022-09-07T20:39:48.890Z,99442.09
2022-09-07T20:42:16.454Z,99426.41
2022-09-07T20:44:43.960Z,99410.53
2022-09-07T20:47:11.607Z,99413.22
2022-09-07T20:49:39.540Z,99411.50
2022-09-07T20:52:07.127Z,99417.41
2022-09-07T20:54:34.754Z,99424.34
2022-09-07T20:57:21.843Z,99413.72
2022-09-07T21:00:20.050Z,99414.56
2022-09-07T21:02:47.649Z,99429.25
2022-09-07T21:05:15.407Z,99428.31
2022-09-07T21:07:42.915Z,99427.38
2022-09-07T21:10:10.937Z,99430.81
2022-09-07T21:12:39.835Z,99429.00
2022-09-07T21:15:08.821Z,99416.81
2022-09-07T21:17:36.397Z,99422.06
2022-09-07T21:20:04.535Z,99425.59
2022-09-07T21:22:32.534Z,99422.97
2022-09-07T21:25:01.973Z,99433.38
2022-09-07T21:27:37.707Z,99432.78
2022-09-07T21:30:08.752Z,99436.31
2022-09-07T21:32:36.252Z,99438.00
2022-09-07T21:35:03.791Z,99445.69
2022-09-07T21:37:31.629Z,99440.19
2022-09-07T21:39:59.312Z,99443.53
2022-09-07T21:42:26.901Z,99447.84
2022-09-07T21:44:54.429Z,99436.47
2022-09-07T21:47:23.316Z,99440.63
2022-09-07T21:49:51.039Z,99445.78
2022-09-07T21:52:19.406Z,99442.38
2022-09-07T21:54:46.923Z,99442.38
2022-09-07T21:57:14.516Z,99445.88
2022-09-07T21:59:42.013Z,99443.34
2022-09-07T22:02:09.582Z,99446.03
2022-09-07T22:04:38.453Z,99439.91
2022-09-07T22:07:06.182Z,99437.22
2022-09-07T22:09:33.700Z,99434.59
2022-09-07T22:12:01.265Z,99432.88
2022-09-07T22:14:28.932Z,99432.41
2022-09-07T22:16:56.651Z,99432.94
2022-09-07T22:19:24.444Z,99435.22
2022-09-07T22:21:53.645Z,99424.72
2022-09-07T22:24:21.242Z,99426.16
2022-09-07T22:26:48.923Z,99426.84
2022-09-07T22:29:16.530Z,99425.91
2022-09-07T22:31:44.446Z,99439.88
2022-09-07T22:34:12.124Z,99431.97
2022-09-07T22:36:41.518Z,99430.00
2022-09-07T22:39:14.397Z,99427.38
2022-09-07T22:41:43.125Z,99440.47
2022-09-07T22:44:12.885Z,99443.06
2022-09-07T22:46:42.243Z,99447.63
2022-09-07T22:49:12.218Z,99450.53
2022-09-07T22:51:39.969Z,99451.47
2022-09-07T22:54:07.860Z,99457.69
2022-09-07T22:56:38.162Z,99480.44
2022-09-07T22:59:08.707Z,99474.50
2022-09-07T23:01:37.806Z,99489.88
2022-09-07T23:04:06.368Z,99486.44
2022-09-07T23:06:35.619Z,99496.81
2022-09-07T23:09:06.680Z,99490.81
2022-09-07T23:11:36.124Z,99490.41
2022-09-07T23:14:07.006Z,99475.66
2022-09-07T23:16:34.565Z,99481.66
2022-09-07T23:19:02.390Z,99478.59
2022-09-07T23:21:30.539Z,99462.91
2022-09-07T23:23:59.802Z,99467.34
2022-09-07T23:26:30.088Z,99460.72
2022-09-07T23:29:00.693Z,99451.69
2022-09-07T23:31:31.990Z,99444.31
2022-09-07T23:34:00.059Z,99451.94
2022-09-07T23:36:27.847Z,99446.66
2022-09-07T23:38:56.614Z,99440.38
2022-09-07T23:41:24.974Z,99435.84
2022-09-07T23:43:52.533Z,99433.19
2022-09-07T23:46:21.884Z,99428.13
2022-09-07T23:48:50.074Z,99424.69
2022-09-07T23:51:23.549Z,99419.19
2022-09-07T23:53:52.562Z,99413.81
2022-09-07T23:56:20.458Z,99417.47
2022-09-07T23:58:48.118Z,99410.19
